Ada, Minnesota
Current Conditions -  °F | °C
As of 8:55 PM on Monday 20 Oct 2014 (Local Time) from K3N8 Reporting Station
Clear Clear  
Wind Chill: 38°   Ceiling: Unl
Heat Index: 41°   Visibility: 10mi
Dew Point: 34°   Wind: 6mph
Humidity: 74%   Direction: 90°E
Pressure: 30.05"   Gusts: NA
Location:  47.3°N, 96.52°W
Report Text: K3N8 210155Z AUTO 09005KT 10SM CLR 05/01 A3005 RMK AO2 T00520010
Loading
Personal Weather Stations






























Interactive Weather Map
Tropical Storm Tracking
New forecast layout! Learn more

10-Day Weather Forecast

Advertisements
Track Severe Weather on mobile